createdAt,value
2023-02-18T00:01:39.705Z,21.00
2023-02-18T00:04:07.940Z,21.80
2023-02-18T00:06:36.779Z,20.50
2023-02-18T00:09:06.331Z,22.50
2023-02-18T00:11:36.282Z,22.90
2023-02-18T00:14:07.096Z,22.50
2023-02-18T00:16:34.915Z,20.00
2023-02-18T00:19:06.906Z,21.20
2023-02-18T00:21:36.474Z,20.00
2023-02-18T00:24:06.241Z,20.80
2023-02-18T00:26:35.758Z,21.30
2023-02-18T00:29:04.665Z,19.90
2023-02-18T00:31:35.987Z,21.70
2023-02-18T00:34:05.485Z,21.60
2023-02-18T00:36:33.557Z,21.60
2023-02-18T00:39:04.506Z,21.70
2023-02-18T00:41:35.245Z,21.60
2023-02-18T00:44:03.429Z,21.60
2023-02-18T00:46:32.114Z,21.50
2023-02-18T00:49:02.547Z,21.80
2023-02-18T00:51:30.995Z,22.00
2023-02-18T00:53:59.736Z,21.20
2023-02-18T00:56:27.881Z,23.40
2023-02-18T00:58:55.960Z,21.40
2023-02-18T01:01:24.498Z,21.00
2023-02-18T01:03:52.595Z,21.50
2023-02-18T01:06:22.380Z,21.40
2023-02-18T01:08:50.570Z,19.80
2023-02-18T01:11:19.438Z,19.20
2023-02-18T01:13:47.508Z,21.50
2023-02-18T01:16:17.301Z,20.50
2023-02-18T01:18:47.647Z,21.40
2023-02-18T01:21:16.935Z,21.80
2023-02-18T01:23:44.902Z,22.60
2023-02-18T01:26:16.968Z,20.80
2023-02-18T01:28:44.829Z,19.50
2023-02-18T01:31:14.354Z,20.80
2023-02-18T01:33:43.108Z,21.10
2023-02-18T01:36:12.221Z,20.70
2023-02-18T01:38:40.930Z,21.40
2023-02-18T01:41:09.354Z,20.40
2023-02-18T01:43:38.107Z,20.80
2023-02-18T01:46:08.606Z,20.90
2023-02-18T01:48:46.548Z,19.80
2023-02-18T01:51:20.054Z,19.60
2023-02-18T01:53:54.829Z,18.60
2023-02-18T01:56:39.337Z,18.90
2023-02-18T01:59:12.455Z,19.00
2023-02-18T02:01:44.434Z,20.20
2023-02-18T02:04:13.174Z,20.20
2023-02-18T02:06:43.994Z,19.30
2023-02-18T02:09:15.517Z,19.00
2023-02-18T02:12:09.668Z,18.70
2023-02-18T02:15:06.895Z,18.20
2023-02-18T02:18:05.987Z,18.60
2023-02-18T02:20:39.878Z,18.30
2023-02-18T02:23:07.738Z,18.00
2023-02-18T02:25:44.625Z,18.60
2023-02-18T02:28:49.428Z,19.10
2023-02-18T02:31:45.525Z,17.40
2023-02-18T02:34:21.651Z,18.90
2023-02-18T02:37:00.734Z,18.00
2023-02-18T02:39:55.106Z,18.30
2023-02-18T02:42:40.927Z,18.00
2023-02-18T02:45:37.637Z,17.90
2023-02-18T02:48:37.165Z,18.90
2023-02-18T02:51:24.266Z,16.70
2023-02-18T02:53:52.386Z,18.20
2023-02-18T02:56:23.890Z,16.60
2023-02-18T02:59:02.715Z,17.20
2023-02-18T03:01:53.816Z,18.40
2023-02-18T03:04:31.150Z,17.90
2023-02-18T03:07:06.097Z,17.50
2023-02-18T03:09:48.379Z,17.20
2023-02-18T03:12:31.324Z,17.00
2023-02-18T03:15:05.661Z,17.20
2023-02-18T03:18:03.214Z,16.40
2023-02-18T03:21:00.399Z,15.90
2023-02-18T03:23:35.033Z,17.60
2023-02-18T03:26:05.890Z,17.10
2023-02-18T03:31:10.837Z,16.60
2023-02-18T03:33:52.485Z,16.20
2023-02-18T03:36:23.209Z,15.50
2023-02-18T03:39:00.193Z,15.80
2023-02-18T03:41:28.344Z,15.80
2023-02-18T03:44:01.872Z,16.40
2023-02-18T03:46:31.876Z,16.30
2023-02-18T03:48:59.960Z,14.40
2023-02-18T03:51:28.349Z,14.80
2023-02-18T03:53:56.348Z,15.70
2023-02-18T03:56:25.396Z,16.00
2023-02-18T03:58:53.227Z,15.30
2023-02-18T04:01:21.734Z,16.40
2023-02-18T04:03:49.748Z,15.60
2023-02-18T04:06:17.825Z,15.40
2023-02-18T04:08:45.720Z,15.00
2023-02-18T04:11:13.828Z,15.80
2023-02-18T04:13:41.781Z,15.40
2023-02-18T04:16:10.140Z,14.60
2023-02-18T04:18:38.284Z,15.50
2023-02-18T04:21:06.449Z,14.50
2023-02-18T04:23:34.503Z,14.70
2023-02-18T04:26:02.412Z,16.10
2023-02-18T04:28:30.255Z,15.40
2023-02-18T04:30:58.188Z,15.10
2023-02-18T04:33:26.226Z,16.40
2023-02-18T04:35:54.608Z,15.60
2023-02-18T04:38:23.389Z,16.20
2023-02-18T04:40:51.512Z,15.20
2023-02-18T04:43:19.436Z,15.20
2023-02-18T04:45:47.407Z,15.30
2023-02-18T04:48:15.420Z,14.30
2023-02-18T04:50:44.756Z,15.40
2023-02-18T04:53:12.611Z,14.90
2023-02-18T04:55:40.529Z,14.40
2023-02-18T04:58:10.117Z,15.20
2023-02-18T05:00:38.042Z,15.00
2023-02-18T05:03:06.073Z,14.90
2023-02-18T05:05:34.120Z,15.00
2023-02-18T05:08:02.510Z,15.40
2023-02-18T05:10:30.438Z,15.40
2023-02-18T05:12:58.403Z,15.80
2023-02-18T05:15:26.545Z,16.40
2023-02-18T05:17:54.423Z,15.80
2023-02-18T05:20:22.274Z,14.70
2023-02-18T05:22:50.244Z,16.70
2023-02-18T05:25:18.613Z,15.60
2023-02-18T05:27:46.613Z,15.90
2023-02-18T05:30:14.891Z,15.80
2023-02-18T05:32:43.062Z,15.80
2023-02-18T05:35:11.037Z,15.00
2023-02-18T05:37:39.118Z,16.20
2023-02-18T05:40:07.966Z,15.40
2023-02-18T05:42:35.977Z,17.00
2023-02-18T05:45:04.713Z,16.30
2023-02-18T05:47:32.997Z,17.60
2023-02-18T05:50:01.174Z,16.00
2023-02-18T05:52:29.187Z,16.40
2023-02-18T05:54:57.132Z,16.50
2023-02-18T05:57:25.242Z,16.60
2023-02-18T05:59:53.219Z,16.00
2023-02-18T06:02:21.153Z,16.40
2023-02-18T06:04:49.248Z,16.10
2023-02-18T06:07:17.196Z,16.60
2023-02-18T06:09:45.022Z,15.50
2023-02-18T06:12:13.176Z,17.20
2023-02-18T06:14:42.432Z,16.90
2023-02-18T06:17:12.385Z,17.10
2023-02-18T06:19:40.716Z,17.70
2023-02-18T06:22:08.599Z,18.20
2023-02-18T06:24:37.445Z,18.30
2023-02-18T06:27:05.624Z,19.10
2023-02-18T06:29:33.542Z,30.90
2023-02-18T06:32:01.669Z,67.60
2023-02-18T06:34:29.528Z,46.90
2023-02-18T06:36:58.507Z,36.80
2023-02-18T06:39:27.121Z,26.50
2023-02-18T06:41:55.427Z,19.00
2023-02-18T06:44:23.348Z,16.90
2023-02-18T06:46:51.357Z,18.00
2023-02-18T06:49:19.294Z,17.80
2023-02-18T06:51:47.222Z,17.10
2023-02-18T06:54:15.155Z,18.70
2023-02-18T06:56:43.240Z,20.40
2023-02-18T06:59:11.749Z,18.90
2023-02-18T07:01:39.863Z,21.40
2023-02-18T07:04:08.023Z,19.90
2023-02-18T07:06:35.998Z,20.90
2023-02-18T07:09:05.225Z,21.70
2023-02-18T07:11:33.614Z,20.40
2023-02-18T07:14:01.661Z,19.00
2023-02-18T07:16:29.646Z,19.50
2023-02-18T07:18:57.573Z,18.80
2023-02-18T07:21:25.542Z,19.90
2023-02-18T07:23:53.885Z,19.60
2023-02-18T07:26:22.048Z,18.00
2023-02-18T07:28:50.014Z,21.60
2023-02-18T07:31:18.418Z,20.80
2023-02-18T07:33:46.592Z,19.80
2023-02-18T07:36:14.482Z,20.60
2023-02-18T07:38:43.093Z,21.30
2023-02-18T07:41:20.390Z,19.10
2023-02-18T07:43:48.920Z,19.10
2023-02-18T07:46:17.582Z,20.00
2023-02-18T07:48:49.477Z,19.20
2023-02-18T07:51:17.375Z,17.90
2023-02-18T07:53:45.631Z,18.70
2023-02-18T07:56:13.587Z,22.80
2023-02-18T07:58:41.559Z,21.00
2023-02-18T08:01:15.016Z,20.60
2023-02-18T08:03:43.399Z,18.20
2023-02-18T08:06:22.781Z,18.30
2023-02-18T08:08:50.975Z,21.50
2023-02-18T08:11:19.852Z,20.70
2023-02-18T08:13:49.385Z,18.30
2023-02-18T08:16:19.731Z,21.40
2023-02-18T08:18:49.709Z,20.80
2023-02-18T08:21:20.625Z,21.50
2023-02-18T08:26:17.909Z,19.00
2023-02-18T08:28:47.448Z,18.70
2023-02-18T08:31:19.937Z,17.60
2023-02-18T08:33:48.629Z,17.70
2023-02-18T08:36:16.685Z,19.60
2023-02-18T08:38:44.839Z,20.20
2023-02-18T08:41:14.673Z,22.20
2023-02-18T08:43:43.031Z,20.40
2023-02-18T08:46:15.908Z,21.30
2023-02-18T08:48:44.976Z,19.40
2023-02-18T08:51:21.459Z,18.70
2023-02-18T08:53:50.428Z,19.00
2023-02-18T08:56:18.357Z,17.00
2023-02-18T08:58:46.366Z,19.30
2023-02-18T09:01:14.527Z,18.70
2023-02-18T09:03:42.468Z,18.60
2023-02-18T09:06:14.039Z,18.40
2023-02-18T09:08:42.525Z,17.50
2023-02-18T09:11:11.604Z,21.60
2023-02-18T09:13:40.094Z,24.10
2023-02-18T09:16:12.705Z,21.90
2023-02-18T09:18:43.950Z,22.80
2023-02-18T09:21:13.710Z,24.10
2023-02-18T09:23:41.850Z,27.10
2023-02-18T09:26:14.270Z,26.10
2023-02-18T09:28:42.535Z,24.20
2023-02-18T09:31:14.249Z,21.40
2023-02-18T09:33:46.197Z,28.00
2023-02-18T09:36:14.978Z,22.80
2023-02-18T09:38:43.161Z,20.80
2023-02-18T09:41:18.766Z,18.70
2023-02-18T09:43:51.343Z,16.40
2023-02-18T09:46:24.060Z,16.30
2023-02-18T09:48:53.102Z,17.00
2023-02-18T09:51:21.179Z,18.80
2023-02-18T09:53:49.148Z,20.90
2023-02-18T09:56:23.114Z,19.40
2023-02-18T09:58:52.293Z,18.20
2023-02-18T10:01:34.091Z,18.40
2023-02-18T10:04:18.431Z,16.40
2023-02-18T10:06:49.004Z,17.70
2023-02-18T10:09:25.641Z,17.60
2023-02-18T10:12:18.690Z,17.80
2023-02-18T10:14:56.831Z,18.00
2023-02-18T10:17:28.414Z,19.00
2023-02-18T10:19:58.142Z,19.40
2023-02-18T10:22:28.127Z,20.30
2023-02-18T10:25:00.324Z,19.30
2023-02-18T10:27:37.395Z,17.70
2023-02-18T10:30:30.891Z,19.40
2023-02-18T10:33:36.309Z,19.10
2023-02-18T10:36:27.589Z,18.90
2023-02-18T10:39:33.288Z,19.40
2023-02-18T10:42:28.670Z,18.50
2023-02-18T10:44:59.608Z,19.20
2023-02-18T10:47:37.016Z,19.10
2023-02-18T10:50:13.652Z,19.30
2023-02-18T10:52:50.172Z,19.10
2023-02-18T10:55:19.037Z,18.60
2023-02-18T10:57:50.274Z,18.40
2023-02-18T11:00:34.061Z,18.80
2023-02-18T11:03:18.931Z,18.40
2023-02-18T11:05:50.501Z,17.70
2023-02-18T11:08:23.166Z,17.40
2023-02-18T11:10:51.850Z,17.00
2023-02-18T11:13:32.837Z,15.60
2023-02-18T11:18:42.394Z,16.60
2023-02-18T11:21:22.523Z,15.00
2023-02-18T11:23:52.868Z,14.80
2023-02-18T11:26:30.546Z,14.40
2023-02-18T11:29:04.075Z,15.50
2023-02-18T11:32:01.218Z,13.70
2023-02-18T11:34:33.615Z,14.10
2023-02-18T11:37:11.173Z,16.40
2023-02-18T11:39:44.611Z,14.70
2023-02-18T11:42:19.086Z,15.30
2023-02-18T11:44:58.738Z,16.30
2023-02-18T11:47:37.810Z,14.00
2023-02-18T11:50:08.464Z,13.80
2023-02-18T11:55:22.830Z,14.30
2023-02-18T11:57:55.255Z,15.80
2023-02-18T12:00:29.409Z,14.90
2023-02-18T12:03:00.353Z,15.40
2023-02-18T12:05:30.089Z,13.50
2023-02-18T12:08:15.452Z,11.90
2023-02-18T12:11:07.290Z,10.90
2023-02-18T12:13:57.120Z,10.40
2023-02-18T12:16:55.583Z,9.30
2023-02-18T12:19:45.269Z,8.80
2023-02-18T12:22:13.323Z,10.70
2023-02-18T12:24:47.022Z,11.50
2023-02-18T12:27:14.971Z,12.20
2023-02-18T12:29:45.937Z,13.30
2023-02-18T12:32:32.545Z,12.90
2023-02-18T12:35:19.657Z,12.50
2023-02-18T12:38:42.218Z,11.70
2023-02-18T12:41:29.360Z,12.70
2023-02-18T12:44:00.124Z,12.80
2023-02-18T12:49:30.606Z,13.30
2023-02-18T12:52:13.565Z,17.10
2023-02-18T12:55:01.269Z,15.90
2023-02-18T12:57:47.561Z,18.30
2023-02-18T13:00:21.646Z,16.20
2023-02-18T13:03:00.738Z,17.40
2023-02-18T13:05:50.092Z,17.60
2023-02-18T13:08:45.998Z,17.40
2023-02-18T13:11:41.015Z,18.40
2023-02-18T13:14:30.273Z,17.10
2023-02-18T13:17:01.593Z,19.40
2023-02-18T13:19:34.841Z,21.30
2023-02-18T13:22:05.977Z,19.70
2023-02-18T13:24:45.098Z,19.30
2023-02-18T13:27:22.082Z,18.50
2023-02-18T13:30:17.532Z,20.30
2023-02-18T13:33:02.994Z,20.20
2023-02-18T13:35:49.455Z,18.50
2023-02-18T13:38:20.258Z,17.70
2023-02-18T13:43:23.722Z,17.40
2023-02-18T13:46:09.678Z,16.00
2023-02-18T13:48:53.137Z,16.80
2023-02-18T13:51:33.397Z,17.00
2023-02-18T13:54:13.236Z,17.60
2023-02-18T13:56:45.717Z,18.20
2023-02-18T13:59:32.613Z,19.60
2023-02-18T14:02:19.632Z,20.00
2023-02-18T14:05:09.425Z,20.60
2023-02-18T14:07:46.930Z,20.90
2023-02-18T14:10:20.868Z,24.90
2023-02-18T14:12:58.209Z,23.70
2023-02-18T14:15:28.933Z,27.20
2023-02-18T14:18:02.883Z,30.40
2023-02-18T14:20:39.748Z,31.90
2023-02-18T14:23:37.521Z,25.70
2023-02-18T14:26:14.008Z,26.00
2023-02-18T14:29:01.919Z,25.60
2023-02-18T14:31:48.384Z,24.60
2023-02-18T14:34:35.400Z,29.30
2023-02-18T14:37:30.044Z,26.00
2023-02-18T14:40:26.843Z,22.60
2023-02-18T14:43:12.437Z,23.10
2023-02-18T14:45:49.503Z,23.90
2023-02-18T14:48:42.383Z,27.00
2023-02-18T14:51:19.958Z,28.50
2023-02-18T14:53:57.535Z,23.90
2023-02-18T14:56:27.140Z,25.80
2023-02-18T14:59:00.063Z,22.40
2023-02-18T15:01:29.702Z,23.40
2023-02-18T15:03:58.831Z,23.80
2023-02-18T15:06:36.084Z,22.30
2023-02-18T15:09:15.884Z,23.10
2023-02-18T15:11:52.132Z,22.80
2023-02-18T15:14:23.611Z,24.60
2023-02-18T15:16:53.184Z,22.30
2023-02-18T15:19:35.602Z,24.10
2023-02-18T15:22:03.737Z,23.40
2023-02-18T15:24:35.492Z,23.70
2023-02-18T15:27:11.542Z,23.20
2023-02-18T15:29:40.080Z,22.80
2023-02-18T15:32:18.575Z,23.80
2023-02-18T15:34:51.149Z,25.90
2023-02-18T15:37:19.438Z,27.60
2023-02-18T15:39:48.225Z,26.40
2023-02-18T15:42:34.258Z,23.90
2023-02-18T15:45:24.653Z,27.90
2023-02-18T15:47:57.718Z,34.50
2023-02-18T15:50:58.495Z,32.90
2023-02-18T15:53:37.106Z,24.40
2023-02-18T15:56:14.147Z,22.60
2023-02-18T15:58:42.313Z,21.80
2023-02-18T16:01:28.309Z,25.70
2023-02-18T16:03:57.028Z,27.50
2023-02-18T16:06:37.248Z,23.50
2023-02-18T16:09:22.829Z,27.20
2023-02-18T16:11:59.750Z,23.70
2023-02-18T16:14:33.072Z,26.30
2023-02-18T16:17:26.616Z,25.90
2023-02-18T16:20:04.845Z,26.80
2023-02-18T16:22:45.151Z,25.60
2023-02-18T16:25:13.125Z,25.00
2023-02-18T16:27:52.314Z,27.30
2023-02-18T16:30:23.851Z,27.90
2023-02-18T16:32:52.194Z,30.30
2023-02-18T16:35:21.748Z,32.10
2023-02-18T16:37:52.910Z,31.70
2023-02-18T16:40:30.145Z,31.40
2023-02-18T16:43:00.966Z,32.80
2023-02-18T16:48:02.863Z,33.30
2023-02-18T16:50:32.990Z,32.80
2023-02-18T16:53:01.734Z,31.80
2023-02-18T16:55:30.409Z,32.60
2023-02-18T16:57:58.543Z,32.60
2023-02-18T17:00:26.607Z,31.60
2023-02-18T17:02:57.878Z,35.50
2023-02-18T17:05:31.019Z,33.50
2023-02-18T17:08:26.654Z,33.00
2023-02-18T17:10:56.794Z,33.80
2023-02-18T17:13:27.317Z,31.40
2023-02-18T17:15:57.483Z,32.80
2023-02-18T17:18:26.755Z,33.60
2023-02-18T17:20:54.718Z,31.80
2023-02-18T17:23:24.371Z,33.20
2023-02-18T17:25:53.153Z,33.10
2023-02-18T17:28:21.183Z,33.60
2023-02-18T17:30:59.021Z,32.40
2023-02-18T17:33:27.321Z,33.40
2023-02-18T17:35:55.477Z,32.10
2023-02-18T17:38:23.857Z,32.30
2023-02-18T17:40:51.867Z,32.50
2023-02-18T17:43:19.811Z,32.40
2023-02-18T17:45:52.803Z,31.70
2023-02-18T17:48:21.032Z,29.10
2023-02-18T17:50:49.397Z,30.10
2023-02-18T17:53:18.814Z,30.40
2023-02-18T17:55:47.817Z,33.20
2023-02-18T17:58:16.544Z,31.60
2023-02-18T18:00:52.791Z,34.50
2023-02-18T18:03:21.545Z,33.00
2023-02-18T18:05:52.207Z,32.90
2023-02-18T18:08:20.671Z,35.80
2023-02-18T18:10:55.145Z,32.50
2023-02-18T18:13:34.328Z,32.10
2023-02-18T18:16:02.244Z,30.50
2023-02-18T18:18:30.337Z,28.20
2023-02-18T18:21:01.154Z,28.70
2023-02-18T18:23:55.718Z,28.20
2023-02-18T18:26:23.740Z,26.50
2023-02-18T18:28:51.786Z,28.60
2023-02-18T18:31:27.088Z,27.00
2023-02-18T18:34:02.274Z,26.30
2023-02-18T18:36:30.357Z,27.60
2023-02-18T18:38:58.440Z,28.30
2023-02-18T18:41:26.463Z,29.40
2023-02-18T18:43:54.832Z,27.90
2023-02-18T18:46:23.108Z,28.60
2023-02-18T18:48:51.182Z,28.30
2023-02-18T18:51:25.137Z,28.90
2023-02-18T18:53:53.244Z,27.90
2023-02-18T18:56:22.290Z,27.90
2023-02-18T18:58:52.482Z,29.50
2023-02-18T19:01:27.659Z,28.40
2023-02-18T19:03:56.406Z,26.80
2023-02-18T19:06:24.750Z,28.20
2023-02-18T19:08:52.709Z,38.20
2023-02-18T19:11:28.045Z,30.00
2023-02-18T19:13:58.831Z,37.20
2023-02-18T19:16:34.764Z,37.20
2023-02-18T19:19:02.788Z,33.40
2023-02-18T19:21:31.844Z,30.80
2023-02-18T19:24:00.007Z,31.90
2023-02-18T19:26:28.302Z,29.20
2023-02-18T19:28:57.894Z,30.60
2023-02-18T19:31:27.004Z,30.20
2023-02-18T19:33:55.668Z,32.80
2023-02-18T19:36:23.701Z,32.60
2023-02-18T19:38:52.333Z,30.50
2023-02-18T19:41:22.498Z,32.70
2023-02-18T19:43:50.513Z,32.10
2023-02-18T19:46:18.683Z,31.20
2023-02-18T19:48:52.501Z,32.10
2023-02-18T19:51:25.181Z,31.40
2023-02-18T19:53:54.620Z,32.50
2023-02-18T19:56:24.429Z,31.40
2023-02-18T19:58:56.511Z,31.10
2023-02-18T20:01:24.594Z,32.80
2023-02-18T20:03:53.849Z,31.40
2023-02-18T20:06:22.295Z,31.80
2023-02-18T20:08:50.540Z,33.20
2023-02-18T20:11:18.541Z,31.50
2023-02-18T20:13:50.743Z,33.40
2023-02-18T20:16:19.584Z,32.60
2023-02-18T20:18:47.822Z,31.60
2023-02-18T20:21:15.865Z,34.40
2023-02-18T20:23:44.083Z,32.10
2023-02-18T20:26:15.121Z,30.40
2023-02-18T20:28:44.548Z,31.00
2023-02-18T20:31:16.476Z,31.30
2023-02-18T20:33:46.040Z,32.10
2023-02-18T20:36:14.696Z,32.90
2023-02-18T20:38:42.765Z,33.00
2023-02-18T20:41:17.778Z,34.20
2023-02-18T20:43:52.361Z,31.10
2023-02-18T20:46:24.888Z,34.20
2023-02-18T20:48:53.288Z,33.00
2023-02-18T20:51:22.316Z,34.30
2023-02-18T20:53:51.417Z,28.90
2023-02-18T20:56:24.104Z,33.60
2023-02-18T20:58:52.263Z,35.00
2023-02-18T21:01:22.772Z,34.40
2023-02-18T21:03:50.839Z,35.90
2023-02-18T21:06:21.722Z,33.70
2023-02-18T21:08:52.160Z,35.60
2023-02-18T21:11:26.422Z,36.10
2023-02-18T21:13:56.534Z,35.70
2023-02-18T21:16:26.512Z,34.10
2023-02-18T21:18:56.665Z,34.60
2023-02-18T21:21:25.208Z,33.30
2023-02-18T21:23:53.555Z,31.90
2023-02-18T21:26:24.614Z,32.90
2023-02-18T21:28:55.515Z,35.20
2023-02-18T21:31:28.369Z,39.40
2023-02-18T21:33:57.346Z,41.00
2023-02-18T21:36:26.915Z,35.10
2023-02-18T21:38:57.681Z,34.40
2023-02-18T21:41:26.645Z,31.70
2023-02-18T21:43:54.819Z,33.70
2023-02-18T21:46:29.870Z,32.80
2023-02-18T21:49:07.207Z,31.50
2023-02-18T21:52:05.415Z,31.10
2023-02-18T21:54:39.343Z,33.20
2023-02-18T21:57:11.446Z,33.20
2023-02-18T21:59:40.730Z,32.40
2023-02-18T22:02:16.291Z,32.50
2023-02-18T22:04:45.192Z,31.80
2023-02-18T22:07:13.836Z,31.20
2023-02-18T22:09:41.800Z,33.80
2023-02-18T22:12:11.960Z,32.10
2023-02-18T22:14:41.544Z,33.90
2023-02-18T22:17:09.951Z,31.60
2023-02-18T22:19:38.027Z,35.70
2023-02-18T22:22:06.062Z,32.20
2023-02-18T22:24:34.612Z,33.10
2023-02-18T22:27:02.757Z,31.50
2023-02-18T22:29:32.226Z,31.80
2023-02-18T22:32:00.552Z,31.20
2023-02-18T22:34:28.611Z,32.20
2023-02-18T22:36:56.580Z,31.80
2023-02-18T22:39:24.671Z,33.50
2023-02-18T22:41:52.563Z,30.60
2023-02-18T22:44:21.048Z,31.20
2023-02-18T22:46:50.540Z,31.50
2023-02-18T22:49:18.521Z,30.70
2023-02-18T22:51:46.496Z,30.00
2023-02-18T22:54:16.682Z,30.40
2023-02-18T22:56:46.536Z,29.70
2023-02-18T22:59:16.876Z,29.90
2023-02-18T23:01:49.521Z,30.00
2023-02-18T23:04:19.372Z,29.50
2023-02-18T23:06:47.453Z,30.50
2023-02-18T23:09:19.397Z,28.40
2023-02-18T23:11:52.209Z,28.80
2023-02-18T23:14:24.061Z,28.70
2023-02-18T23:17:15.012Z,29.80
2023-02-18T23:22:16.682Z,27.10
2023-02-18T23:24:46.253Z,29.00
2023-02-18T23:27:15.328Z,28.30
2023-02-18T23:29:43.518Z,26.00
2023-02-18T23:32:11.848Z,27.70
2023-02-18T23:34:40.297Z,27.20
2023-02-18T23:37:08.506Z,29.00
2023-02-18T23:39:37.018Z,28.50
2023-02-18T23:42:05.070Z,27.60
2023-02-18T23:44:33.046Z,26.50
2023-02-18T23:47:00.917Z,27.30
2023-02-18T23:49:29.073Z,28.80
2023-02-18T23:51:57.980Z,28.30
2023-02-18T23:54:26.276Z,28.80
2023-02-18T23:56:54.246Z,27.90
2023-02-18T23:59:22.105Z,27.20
